Time;durP1;ratioP1;P1;durP2;ratioP2;P2;SDS_P1;SDS_P2;PMS_P1;PMS_P2;Temp;Humidity;BMP_temperature;BMP_pressure;BME280_temperature;BME280_humidity;BME280_pressure;Samples;Min_cycle;Max_cycle;Signal;HPM_P1;HPM_P2
2020/12/08 00:01:24;;;;;;;11.02;8.60;;;6.20;99.90;;;;;;6938794;28;20481;-66
2020/12/08 00:04:45;;;;;;;10.43;8.60;;;6.20;99.90;;;;;;6929917;28;20404;-66
2020/12/08 00:08:07;;;;;;;10.83;8.60;;;6.20;99.90;;;;;;6935639;28;20415;-66
2020/12/08 00:11:28;;;;;;;10.95;8.77;;;6.10;99.90;;;;;;6941896;28;20421;-66
2020/12/08 00:14:49;;;;;;;10.40;8.52;;;6.00;99.90;;;;;;6953087;28;20392;-66
2020/12/08 00:18:09;;;;;;;11.30;9.00;;;6.00;99.90;;;;;;6944649;28;20407;-67
2020/12/08 00:21:30;;;;;;;12.02;9.10;;;6.00;99.90;;;;;;6930960;28;20408;-68
2020/12/08 00:24:51;;;;;;;11.70;9.60;;;6.00;99.90;;;;;;6952768;28;20427;-68
2020/12/08 00:28:12;;;;;;;10.63;8.93;;;6.10;99.90;;;;;;6917141;28;20407;-68
2020/12/08 00:31:33;;;;;;;11.32;9.23;;;6.10;99.90;;;;;;6929129;28;20414;-68
2020/12/08 00:34:54;;;;;;;12.00;9.65;;;6.10;99.90;;;;;;6934781;28;20418;-68
2020/12/08 00:38:15;;;;;;;11.15;9.20;;;6.00;99.90;;;;;;6942143;28;20388;-69
2020/12/08 00:41:36;;;;;;;11.75;9.30;;;6.00;99.90;;;;;;6933971;28;20515;-68
2020/12/08 00:44:56;;;;;;;11.77;9.30;;;6.00;99.90;;;;;;6929701;28;20488;-68
2020/12/08 00:48:17;;;;;;;10.82;9.02;;;6.10;99.90;;;;;;6931113;28;20445;-68
2020/12/08 00:51:38;;;;;;;10.70;8.73;;;6.00;99.90;;;;;;6948969;28;20767;-68
2020/12/08 00:54:59;;;;;;;11.35;8.85;;;6.10;99.90;;;;;;6946631;28;21232;-68
2020/12/08 00:58:21;;;;;;;10.70;8.50;;;6.00;99.90;;;;;;6953308;28;20407;-68
2020/12/08 01:01:43;;;;;;;10.63;9.07;;;6.00;99.90;;;;;;6938736;28;20424;-68
2020/12/08 01:05:10;;;;;;;10.75;8.75;;;6.00;99.90;;;;;;6936617;28;20723;-68
2020/12/08 01:08:31;;;;;;;11.23;9.40;;;6.10;99.90;;;;;;6941356;28;20493;-68
2020/12/08 01:11:52;;;;;;;11.60;9.52;;;6.00;99.90;;;;;;6951686;28;20421;-68
2020/12/08 01:15:19;;;;;;;10.52;8.60;;;6.00;99.90;;;;;;6949937;28;20393;-68
2020/12/08 01:18:41;;;;;;;10.52;8.68;;;6.00;99.90;;;;;;6927619;28;20424;-68
2020/12/08 01:22:04;;;;;;;11.13;9.03;;;5.90;99.90;;;;;;6936391;28;20876;-68
2020/12/08 01:25:26;;;;;;;10.50;9.07;;;6.00;99.90;;;;;;6944633;28;20399;-68
2020/12/08 01:28:47;;;;;;;11.43;9.30;;;5.90;99.90;;;;;;6944900;28;20502;-68
2020/12/08 01:32:08;;;;;;;10.70;8.88;;;5.90;99.90;;;;;;6942893;28;20424;-68
2020/12/08 01:35:31;;;;;;;10.52;9.02;;;6.00;99.90;;;;;;6935741;28;20434;-68
2020/12/08 01:38:54;;;;;;;10.68;8.93;;;5.90;99.90;;;;;;6921883;28;20400;-68
2020/12/08 01:42:16;;;;;;;11.70;9.10;;;5.80;99.90;;;;;;6966161;28;20433;-68
2020/12/08 01:45:37;;;;;;;12.77;8.80;;;5.90;99.90;;;;;;6938508;28;20453;-68
2020/12/08 01:48:58;;;;;;;10.47;8.60;;;5.90;99.90;;;;;;6923947;28;20393;-68
2020/12/08 01:52:20;;;;;;;10.88;8.85;;;5.90;99.90;;;;;;6948890;28;20812;-68
2020/12/08 01:55:47;;;;;;;10.13;8.40;;;5.90;99.90;;;;;;6925771;28;20805;-68
2020/12/08 01:59:08;;;;;;;10.38;8.75;;;5.80;99.90;;;;;;6924754;28;20921;-68
2020/12/08 02:02:32;;;;;;;10.82;8.70;;;5.80;99.90;;;;;;6952298;28;20399;-68
2020/12/08 02:05:54;;;;;;;11.67;9.20;;;6.00;99.90;;;;;;6942220;28;20423;-66
2020/12/08 02:09:15;;;;;;;11.48;8.70;;;5.80;99.90;;;;;;6917785;28;20395;-66
2020/12/08 02:12:37;;;;;;;11.40;9.10;;;5.80;99.90;;;;;;6933438;28;20471;-66
2020/12/08 02:15:58;;;;;;;11.77;9.10;;;5.80;99.90;;;;;;6938229;28;20394;-66
2020/12/08 02:19:19;;;;;;;10.90;8.60;;;5.80;99.90;;;;;;6926475;28;20439;-66
2020/12/08 02:22:42;;;;;;;11.77;8.93;;;5.80;99.90;;;;;;6927668;28;20404;-66
2020/12/08 02:26:05;;;;;;;10.55;8.63;;;5.90;99.90;;;;;;6952152;28;20966;-66
2020/12/08 02:29:28;;;;;;;11.77;8.83;;;6.00;99.90;;;;;;6953871;28;20438;-66
2020/12/08 02:32:50;;;;;;;12.30;9.40;;;6.10;99.90;;;;;;6948413;28;20415;-66
2020/12/08 02:36:11;;;;;;;11.82;9.18;;;5.90;99.90;;;;;;6903303;28;20480;-66
2020/12/08 02:39:32;;;;;;;11.07;9.23;;;6.00;99.90;;;;;;6927147;28;21016;-66
2020/12/08 02:42:53;;;;;;;11.60;8.98;;;5.90;99.90;;;;;;6930395;28;20436;-66
2020/12/08 02:46:15;;;;;;;11.40;9.20;;;5.80;99.90;;;;;;6933313;28;20415;-66
2020/12/08 02:49:36;;;;;;;11.30;8.88;;;5.80;99.90;;;;;;6935510;28;20885;-66
2020/12/08 02:52:57;;;;;;;11.88;9.00;;;5.90;99.90;;;;;;6918544;28;20426;-67
2020/12/08 02:56:24;;;;;;;11.70;9.17;;;6.00;99.90;;;;;;6942374;28;20440;-66
2020/12/08 02:59:47;;;;;;;11.55;9.20;;;5.90;99.90;;;;;;6917393;28;20503;-68
2020/12/08 03:03:14;;;;;;;13.25;9.60;;;5.90;99.90;;;;;;6936078;28;20818;-67
2020/12/08 03:06:41;;;;;;;12.20;9.32;;;5.90;99.90;;;;;;6928185;28;20447;-67
2020/12/08 03:10:02;;;;;;;12.75;9.15;;;5.90;99.90;;;;;;6927131;28;20416;-68
2020/12/08 03:13:29;;;;;;;11.47;9.00;;;5.90;99.90;;;;;;6925195;28;20408;-67
2020/12/08 03:16:54;;;;;;;11.30;8.85;;;5.80;99.90;;;;;;6933177;28;20412;-67
2020/12/08 03:20:15;;;;;;;11.30;9.40;;;5.80;99.90;;;;;;6947729;28;20879;-67
2020/12/08 03:23:42;;;;;;;11.93;9.40;;;5.90;99.90;;;;;;6945342;28;20820;-67
2020/12/08 03:27:03;;;;;;;11.65;9.35;;;5.90;99.90;;;;;;6948846;28;20900;-67
2020/12/08 03:30:24;;;;;;;12.60;9.20;;;5.80;99.90;;;;;;6936862;28;20445;-67
2020/12/08 03:33:47;;;;;;;12.00;9.20;;;5.80;99.90;;;;;;6929316;28;20456;-67
2020/12/08 03:37:08;;;;;;;11.63;8.90;;;5.70;99.90;;;;;;6941707;28;21090;-67
2020/12/08 03:40:30;;;;;;;11.83;9.10;;;5.70;99.90;;;;;;6930321;28;20486;-67
2020/12/08 03:43:54;;;;;;;10.85;8.90;;;5.80;99.90;;;;;;6930503;28;20444;-67
2020/12/08 03:47:15;;;;;;;12.20;9.10;;;5.80;99.90;;;;;;6938039;28;20435;-67
2020/12/08 03:50:36;;;;;;;11.95;8.82;;;5.80;99.90;;;;;;6940079;28;20995;-66
2020/12/08 03:53:58;;;;;;;11.82;8.98;;;5.80;99.90;;;;;;6924631;28;20405;-66
2020/12/08 03:57:24;;;;;;;12.18;9.35;;;5.70;99.90;;;;;;6950735;28;20502;-66
2020/12/08 04:00:45;;;;;;;12.95;9.27;;;5.80;99.90;;;;;;6940120;28;20901;-66
2020/12/08 04:04:06;;;;;;;11.93;9.43;;;5.80;99.90;;;;;;6952649;28;20391;-66
2020/12/08 04:07:27;;;;;;;11.88;9.50;;;5.70;99.90;;;;;;6942409;28;20435;-66
2020/12/08 04:11:14;;;;;;;12.60;9.93;;;5.70;99.90;;;;;;6940381;28;20778;-66
2020/12/08 04:14:36;;;;;;;12.30;9.50;;;5.70;99.90;;;;;;6940891;28;20410;-66
2020/12/08 04:17:57;;;;;;;12.17;9.40;;;5.70;99.90;;;;;;6940557;28;20881;-66
2020/12/08 04:21:23;;;;;;;13.38;9.63;;;5.70;99.90;;;;;;6936697;28;20427;-66
2020/12/08 04:24:44;;;;;;;12.00;9.50;;;5.60;99.90;;;;;;6934064;28;20410;-66
2020/12/08 04:28:07;;;;;;;12.48;9.50;;;5.70;99.90;;;;;;6928504;28;20401;-67
2020/12/08 04:31:28;;;;;;;13.07;9.43;;;5.70;99.90;;;;;;6939233;28;20501;-66
2020/12/08 04:35:15;;;;;;;12.45;9.70;;;5.70;99.90;;;;;;6933554;28;20405;-66
2020/12/08 04:38:35;;;;;;;12.32;9.63;;;5.80;99.90;;;;;;6953658;28;20383;-66
2020/12/08 04:42:30;;;;;;;12.88;9.90;;;5.80;99.90;;;;;;6953928;28;20970;-66
2020/12/08 04:45:52;;;;;;;13.63;9.80;;;5.70;99.90;;;;;;6928518;28;20392;-66
2020/12/08 04:49:15;;;;;;;12.38;9.60;;;5.70;99.90;;;;;;6938296;28;20901;-66
2020/12/08 04:52:36;;;;;;;12.32;9.63;;;5.70;99.90;;;;;;6947825;28;20414;-66
2020/12/08 04:56:23;;;;;;;13.65;9.70;;;5.60;99.90;;;;;;6932547;28;20412;-67
2020/12/08 04:59:43;;;;;;;13.40;10.30;;;5.60;99.90;;;;;;6934531;28;20429;-66
2020/12/08 05:03:04;;;;;;;12.88;9.88;;;5.60;99.90;;;;;;6947192;28;20415;-67
2020/12/08 05:06:28;;;;;;;15.50;10.60;;;5.70;99.90;;;;;;6943533;28;20419;-67
2020/12/08 05:09:49;;;;;;;14.35;10.18;;;5.70;99.90;;;;;;6913188;28;20413;-66
2020/12/08 05:13:25;;;;;;;14.48;11.02;;;5.70;99.90;;;;;;6948570;28;20447;-67
2020/12/08 05:16:46;;;;;;;13.50;10.30;;;5.60;99.90;;;;;;6938139;28;20402;-67
2020/12/08 05:20:12;;;;;;;14.85;10.68;;;5.60;99.90;;;;;;6923835;28;20833;-66
2020/12/08 05:23:41;;;;;;;12.93;9.97;;;5.60;99.90;;;;;;6920808;28;20393;-66
2020/12/08 05:27:04;;;;;;;14.73;10.63;;;5.60;99.90;;;;;;6936927;28;20480;-66
2020/12/08 05:30:26;;;;;;;15.25;10.75;;;5.70;99.90;;;;;;6929805;28;20918;-66
2020/12/08 05:33:48;;;;;;;14.30;10.40;;;5.70;99.90;;;;;;6928101;28;20484;-66
2020/12/08 05:37:16;;;;;;;13.87;10.20;;;5.60;99.90;;;;;;6943700;28;20388;-66
2020/12/08 05:40:41;;;;;;;14.30;10.55;;;5.50;99.90;;;;;;6946431;28;20400;-66
2020/12/08 05:44:04;;;;;;;14.30;10.50;;;5.50;99.90;;;;;;6926048;28;20405;-66
2020/12/08 05:47:25;;;;;;;14.43;10.77;;;5.50;99.90;;;;;;6946071;28;20409;-66
2020/12/08 05:50:46;;;;;;;14.35;11.10;;;5.40;99.90;;;;;;6924618;28;20412;-67
2020/12/08 05:54:12;;;;;;;14.05;10.65;;;5.40;99.90;;;;;;6917770;28;20408;-66
2020/12/08 05:57:33;;;;;;;14.88;10.90;;;5.50;99.90;;;;;;6917786;28;20944;-66
2020/12/08 06:01:01;;;;;;;14.20;10.05;;;5.50;99.90;;;;;;6919446;28;20416;-66
2020/12/08 06:04:22;;;;;;;13.25;10.13;;;5.40;99.90;;;;;;6926872;28;20405;-66
2020/12/08 06:07:43;;;;;;;13.25;9.82;;;5.30;99.90;;;;;;6931312;28;20813;-67
2020/12/08 06:11:04;;;;;;;13.20;10.40;;;5.30;99.90;;;;;;6925888;28;20413;-67
2020/12/08 06:14:36;;;;;;;14.03;10.10;;;5.10;99.90;;;;;;6935798;28;20808;-66
2020/12/08 06:17:56;;;;;;;13.63;10.13;;;5.20;99.90;;;;;;6917575;28;20474;-66
2020/12/08 06:21:22;;;;;;;13.35;10.07;;;5.30;99.90;;;;;;6918603;28;20881;-65
2020/12/08 06:24:54;;;;;;;14.00;10.85;;;5.30;99.90;;;;;;6949961;28;20430;-65
2020/12/08 06:28:18;;;;;;;15.02;10.70;;;5.40;99.90;;;;;;6954314;28;20399;-64
2020/12/08 06:31:47;;;;;;;15.60;11.20;;;5.30;99.90;;;;;;6933520;28;20423;-65
2020/12/08 06:35:13;;;;;;;16.20;11.10;;;5.40;99.90;;;;;;6956209;28;20492;-66
2020/12/08 06:38:35;;;;;;;15.70;11.07;;;5.30;99.90;;;;;;6954648;28;20407;-65
2020/12/08 06:41:56;;;;;;;14.60;11.00;;;5.40;99.90;;;;;;6948614;28;20878;-67
2020/12/08 06:45:23;;;;;;;15.27;10.90;;;5.30;99.90;;;;;;6925557;28;20406;-67
2020/12/08 06:48:43;;;;;;;16.48;11.98;;;5.30;99.90;;;;;;6922959;28;20597;-67
2020/12/08 06:52:08;;;;;;;15.10;11.10;;;5.20;99.90;;;;;;6942625;28;21638;-67
2020/12/08 06:55:41;;;;;;;16.45;11.55;;;5.30;99.90;;;;;;6937396;28;20393;-67
2020/12/08 06:59:02;;;;;;;15.00;11.10;;;5.20;99.90;;;;;;6935240;28;20403;-67
2020/12/08 07:02:22;;;;;;;16.02;11.80;;;5.30;99.90;;;;;;6922544;28;20902;-67
2020/12/08 07:05:44;;;;;;;16.07;11.90;;;5.20;99.90;;;;;;6919306;28;20494;-67
2020/12/08 07:09:05;;;;;;;15.07;11.20;;;5.30;99.90;;;;;;6945020;28;20391;-67
2020/12/08 07:12:26;;;;;;;15.68;11.52;;;5.30;99.90;;;;;;6931065;28;20439;-68
2020/12/08 07:15:47;;;;;;;15.13;11.45;;;5.30;99.90;;;;;;6921986;28;20400;-68
2020/12/08 07:19:08;;;;;;;15.97;10.90;;;5.30;99.90;;;;;;6921952;28;20411;-67
2020/12/08 07:22:39;;;;;;;15.87;11.70;;;5.40;99.90;;;;;;6914257;28;20410;-67
2020/12/08 07:26:00;;;;;;;16.43;11.50;;;5.30;99.90;;;;;;6922347;28;20907;-68
2020/12/08 07:29:23;;;;;;;15.60;11.27;;;5.30;99.90;;;;;;6937139;28;20395;-67
2020/12/08 07:32:44;;;;;;;17.65;12.30;;;5.30;99.90;;;;;;6921445;28;20414;-66
2020/12/08 07:36:05;;;;;;;16.48;11.95;;;5.40;99.90;;;;;;6914213;28;20403;-64
2020/12/08 07:39:28;;;;;;;18.55;13.55;;;5.30;99.90;;;;;;6945998;28;20437;-65
2020/12/08 07:42:51;;;;;;;19.17;14.10;;;5.30;99.90;;;;;;6920610;28;20416;-67
2020/12/08 07:46:38;;;;;;;16.23;12.02;;;5.40;99.90;;;;;;6926807;28;20442;-65
2020/12/08 07:50:32;;;;;;;16.95;12.50;;;5.40;99.90;;;;;;6921208;28;20444;-66
2020/12/08 07:54:09;;;;;;;16.90;12.68;;;5.50;99.90;;;;;;6928284;28;20732;-67
2020/12/08 07:57:39;;;;;;;18.83;13.27;;;5.70;99.90;;;;;;6939560;28;20484;-67
2020/12/08 08:01:04;;;;;;;18.73;13.32;;;5.60;99.90;;;;;;6928106;28;20417;-67
2020/12/08 08:04:31;;;;;;;17.83;13.30;;;5.50;99.90;;;;;;6934705;28;20408;-67
2020/12/08 08:08:02;;;;;;;19.55;13.50;;;5.40;99.90;;;;;;6920510;28;20417;-67
2020/12/08 08:11:26;;;;;;;19.27;13.45;;;5.30;99.90;;;;;;6938418;28;20426;-66
2020/12/08 08:14:55;;;;;;;18.63;14.00;;;5.50;99.90;;;;;;6947607;28;20403;-68
2020/12/08 08:18:16;;;;;;;19.67;13.65;;;5.30;99.90;;;;;;6924364;28;20484;-66
2020/12/08 08:21:37;;;;;;;19.60;13.85;;;5.40;99.90;;;;;;6934832;28;20522;-68
2020/12/08 08:24:58;;;;;;;21.33;14.50;;;5.40;99.90;;;;;;6914648;28;20497;-68
2020/12/08 08:28:19;;;;;;;20.27;14.43;;;5.50;99.90;;;;;;6925269;28;20474;-67
2020/12/08 08:31:40;;;;;;;19.97;14.40;;;5.50;99.90;;;;;;6954307;28;20419;-67
2020/12/08 08:35:01;;;;;;;19.20;14.10;;;5.50;99.90;;;;;;6946207;28;20524;-67
2020/12/08 08:38:26;;;;;;;19.42;14.20;;;5.50;99.90;;;;;;6923584;28;20406;-67
2020/12/08 08:41:47;;;;;;;22.15;15.07;;;5.70;99.90;;;;;;6958732;28;20416;-68
2020/12/08 08:45:08;;;;;;;21.87;14.87;;;5.80;99.90;;;;;;6934607;28;20408;-67
2020/12/08 08:48:28;;;;;;;20.07;14.50;;;6.10;99.90;;;;;;6941920;28;20396;-68
2020/12/08 08:51:49;;;;;;;20.90;13.65;;;6.00;99.90;;;;;;6924039;28;20516;-68
2020/12/08 08:55:11;;;;;;;17.83;13.63;;;5.90;99.90;;;;;;6918226;28;21017;-68
2020/12/08 08:58:32;;;;;;;18.98;14.45;;;5.90;99.90;;;;;;6931289;28;20420;-68
2020/12/08 09:01:53;;;;;;;23.42;15.55;;;6.00;99.90;;;;;;6945786;28;20949;-67
2020/12/08 09:05:14;;;;;;;20.83;15.13;;;6.30;99.90;;;;;;6936327;28;20917;-68
2020/12/08 09:08:35;;;;;;;20.85;14.80;;;6.30;99.90;;;;;;6929997;28;20433;-70
2020/12/08 09:11:57;;;;;;;22.98;14.90;;;6.50;99.90;;;;;;6940665;28;20770;-70
2020/12/08 09:15:18;;;;;;;19.93;14.57;;;6.50;99.90;;;;;;6925210;28;20488;-72
2020/12/08 09:18:39;;;;;;;21.20;15.70;;;6.30;99.90;;;;;;6928664;28;20492;-68
2020/12/08 09:21:59;;;;;;;20.73;15.13;;;6.40;99.90;;;;;;6952267;28;20441;-72
2020/12/08 09:25:22;;;;;;;19.70;14.90;;;6.40;99.90;;;;;;6933843;28;20431;-71
2020/12/08 09:28:43;;;;;;;21.60;15.93;;;6.40;99.90;;;;;;6937171;28;20404;-71
2020/12/08 09:32:04;;;;;;;22.27;16.02;;;6.30;99.90;;;;;;6945265;28;21035;-72
2020/12/08 09:35:25;;;;;;;21.83;15.10;;;6.30;99.90;;;;;;6952339;28;20394;-72
2020/12/08 09:38:46;;;;;;;22.95;15.93;;;6.20;99.90;;;;;;6947114;28;20483;-71
2020/12/08 09:42:07;;;;;;;21.73;16.13;;;6.10;99.90;;;;;;6952462;28;20822;-68
2020/12/08 09:45:28;;;;;;;20.27;15.07;;;6.10;99.90;;;;;;6925540;28;20467;-68
2020/12/08 09:48:49;;;;;;;21.48;16.33;;;6.10;99.90;;;;;;6932594;28;20405;-68
2020/12/08 09:52:10;;;;;;;19.90;15.30;;;6.10;99.90;;;;;;6929958;28;20925;-68
2020/12/08 09:55:31;;;;;;;19.55;14.80;;;6.10;99.90;;;;;;6919622;28;20410;-68
2020/12/08 09:58:55;;;;;;;21.77;15.30;;;6.30;99.90;;;;;;6944740;28;20471;-65
2020/12/08 10:02:16;;;;;;;21.42;15.90;;;6.50;99.90;;;;;;6928044;28;21012;-66
2020/12/08 10:05:37;;;;;;;22.53;15.80;;;7.10;99.90;;;;;;6960269;28;20465;-68
2020/12/08 10:08:58;;;;;;;22.83;16.02;;;8.00;99.90;;;;;;6912053;28;20808;-66
2020/12/08 10:12:18;;;;;;;22.98;16.77;;;8.40;99.90;;;;;;6939924;28;20487;-68
2020/12/08 10:15:39;;;;;;;24.05;17.20;;;8.20;99.90;;;;;;6936119;28;20750;-67
2020/12/08 10:19:00;;;;;;;24.83;18.13;;;7.70;99.90;;;;;;6948938;28;20472;-68
2020/12/08 10:22:21;;;;;;;26.80;17.98;;;7.40;99.90;;;;;;6916671;28;20404;-68
2020/12/08 10:25:42;;;;;;;24.88;17.52;;;7.10;99.90;;;;;;6941330;28;20399;-67
2020/12/08 10:29:03;;;;;;;26.38;17.98;;;6.90;99.90;;;;;;6931464;28;20417;-66
2020/12/08 10:32:24;;;;;;;27.73;18.00;;;7.00;99.90;;;;;;6939510;28;20414;-67
2020/12/08 10:35:45;;;;;;;27.90;18.03;;;7.00;99.90;;;;;;6923823;28;20459;-67
2020/12/08 10:39:06;;;;;;;28.52;19.00;;;6.90;99.90;;;;;;6936239;28;20387;-68
2020/12/08 10:42:27;;;;;;;27.50;18.30;;;6.80;99.90;;;;;;6928528;28;20790;-66
2020/12/08 10:45:48;;;;;;;26.73;18.55;;;6.80;99.90;;;;;;6945467;28;20941;-68
2020/12/08 10:49:09;;;;;;;26.80;18.70;;;6.90;99.90;;;;;;6941286;28;20491;-68
2020/12/08 10:52:30;;;;;;;29.97;19.57;;;6.90;99.90;;;;;;6941413;28;20445;-68
2020/12/08 10:55:51;;;;;;;30.23;19.58;;;6.90;99.90;;;;;;6932382;28;20426;-67
2020/12/08 10:59:11;;;;;;;29.05;19.77;;;7.00;99.90;;;;;;6924162;28;20400;-66
2020/12/08 11:02:32;;;;;;;29.90;20.60;;;7.00;99.90;;;;;;6924348;28;20401;-68
2020/12/08 11:05:54;;;;;;;29.48;18.98;;;6.90;99.90;;;;;;6946621;28;20403;-68
2020/12/08 11:09:15;;;;;;;29.67;20.60;;;6.90;99.90;;;;;;6917389;28;20468;-68
2020/12/08 11:12:35;;;;;;;31.63;20.43;;;7.00;99.90;;;;;;6936426;28;20404;-68
2020/12/08 11:15:58;;;;;;;31.42;20.73;;;7.00;99.90;;;;;;6915698;28;21135;-68
2020/12/08 11:19:19;;;;;;;29.95;20.17;;;7.00;99.90;;;;;;6926928;28;20916;-68
2020/12/08 11:22:40;;;;;;;32.20;20.80;;;7.10;99.90;;;;;;6938329;28;20433;-69
2020/12/08 11:26:01;;;;;;;33.75;21.63;;;7.00;99.90;;;;;;6920830;28;20434;-68
2020/12/08 11:29:22;;;;;;;35.17;22.60;;;7.00;99.90;;;;;;6925784;28;20407;-68
2020/12/08 11:32:43;;;;;;;33.15;21.52;;;7.10;99.90;;;;;;6925127;28;20933;-68
2020/12/08 11:36:06;;;;;;;35.00;21.63;;;7.00;99.90;;;;;;6912102;28;20399;-67
2020/12/08 11:39:27;;;;;;;35.40;21.83;;;7.20;99.90;;;;;;6927284;28;20396;-68
2020/12/08 11:42:48;;;;;;;34.20;21.20;;;7.20;99.90;;;;;;6942230;28;20484;-68
2020/12/08 11:46:12;;;;;;;34.00;22.55;;;7.10;99.90;;;;;;6918271;28;20423;-67
2020/12/08 11:49:36;;;;;;;34.35;21.50;;;7.10;99.90;;;;;;6935391;28;20405;-69
2020/12/08 11:52:57;;;;;;;33.45;21.10;;;7.10;99.90;;;;;;6929128;28;20449;-68
2020/12/08 11:56:18;;;;;;;36.65;22.50;;;7.00;99.90;;;;;;6918673;28;20400;-68
2020/12/08 11:59:39;;;;;;;39.90;23.95;;;7.00;99.90;;;;;;6933381;28;20463;-68
2020/12/08 12:02:59;;;;;;;41.80;24.57;;;7.00;99.90;;;;;;6931339;28;20454;-67
2020/12/08 12:06:20;;;;;;;41.95;24.80;;;6.80;99.90;;;;;;6923325;28;20420;-68
2020/12/08 12:09:41;;;;;;;41.00;24.05;;;6.80;99.90;;;;;;6944268;28;20401;-69
2020/12/08 12:13:02;;;;;;;40.03;24.05;;;6.90;99.90;;;;;;6964169;28;20884;-68
2020/12/08 12:16:23;;;;;;;44.50;25.40;;;6.90;99.90;;;;;;6936091;28;20432;-68
2020/12/08 12:19:44;;;;;;;43.27;25.10;;;6.90;99.90;;;;;;6931845;28;20746;-68
2020/12/08 12:23:05;;;;;;;47.08;25.77;;;6.90;99.90;;;;;;6941941;28;20403;-68
2020/12/08 12:26:26;;;;;;;43.65;26.10;;;6.90;99.90;;;;;;6921071;28;20406;-68
2020/12/08 12:29:47;;;;;;;45.17;25.27;;;6.70;99.90;;;;;;6939088;28;20476;-68
2020/12/08 12:33:08;;;;;;;43.73;25.43;;;6.70;99.90;;;;;;6923151;28;20948;-69
2020/12/08 12:36:29;;;;;;;43.30;25.52;;;6.50;99.90;;;;;;6934701;28;20383;-67
2020/12/08 12:39:50;;;;;;;42.97;26.17;;;6.50;99.90;;;;;;6940616;28;20456;-68
2020/12/08 12:43:11;;;;;;;46.30;26.70;;;6.60;99.90;;;;;;6932101;28;20472;-68
2020/12/08 12:46:31;;;;;;;45.10;25.77;;;6.50;99.90;;;;;;6929962;28;20416;-67
2020/12/08 12:49:52;;;;;;;44.00;25.88;;;6.50;99.90;;;;;;6923766;28;20424;-67
2020/12/08 12:53:14;;;;;;;50.15;25.77;;;6.40;99.90;;;;;;6919028;28;20417;-67
2020/12/08 12:56:36;;;;;;;44.90;24.42;;;6.50;99.90;;;;;;6936867;28;20432;-67
2020/12/08 12:59:57;;;;;;;43.35;23.88;;;6.50;99.90;;;;;;6921062;28;20406;-67
2020/12/08 13:03:17;;;;;;;40.35;24.00;;;6.40;99.90;;;;;;6936017;28;20403;-67
2020/12/08 13:06:38;;;;;;;45.57;25.17;;;6.40;99.90;;;;;;6925528;28;20492;-69
2020/12/08 13:09:59;;;;;;;45.15;25.45;;;6.50;99.90;;;;;;6923366;28;20443;-68
2020/12/08 13:13:21;;;;;;;44.70;24.90;;;6.40;99.90;;;;;;6931055;28;20429;-68
2020/12/08 13:16:42;;;;;;;42.57;25.13;;;6.40;99.90;;;;;;6944985;28;20388;-67
2020/12/08 13:20:03;;;;;;;45.30;24.85;;;6.40;99.90;;;;;;6928213;28;20481;-67
2020/12/08 13:23:25;;;;;;;42.67;25.50;;;6.50;99.90;;;;;;6950113;28;20400;-67
2020/12/08 13:26:46;;;;;;;46.40;26.38;;;6.40;99.90;;;;;;6911782;28;20508;-67
2020/12/08 13:30:07;;;;;;;42.92;26.13;;;6.40;99.90;;;;;;6933665;28;20415;-68
2020/12/08 13:33:29;;;;;;;46.28;26.88;;;6.30;99.90;;;;;;6935364;28;20423;-67
2020/12/08 13:36:52;;;;;;;48.42;27.30;;;6.30;99.90;;;;;;6935844;28;20397;-69
2020/12/08 13:40:13;;;;;;;46.87;26.77;;;6.30;99.90;;;;;;6929839;28;20719;-68
2020/12/08 13:43:34;;;;;;;45.75;27.02;;;6.30;99.90;;;;;;6927452;28;20406;-68
2020/12/08 13:46:56;;;;;;;47.95;27.35;;;6.40;99.90;;;;;;6947454;28;20394;-68
2020/12/08 13:50:17;;;;;;;45.30;26.60;;;6.30;99.90;;;;;;6921810;28;20402;-67
2020/12/08 13:53:38;;;;;;;46.33;26.77;;;6.30;99.90;;;;;;6918531;28;20455;-68
2020/12/08 13:56:58;;;;;;;44.65;26.65;;;6.40;99.90;;;;;;6939463;28;20401;-69
2020/12/08 14:00:19;;;;;;;46.33;26.77;;;6.30;99.90;;;;;;6926063;28;20410;-68
2020/12/08 14:03:40;;;;;;;45.90;26.90;;;6.40;99.90;;;;;;6925960;28;20828;-68
2020/12/08 14:07:01;;;;;;;43.67;27.20;;;6.30;99.90;;;;;;6928223;28;20397;-68
2020/12/08 14:10:22;;;;;;;45.15;27.15;;;6.40;99.90;;;;;;6927423;28;20893;-68
2020/12/08 14:13:43;;;;;;;43.25;26.33;;;6.30;99.90;;;;;;6921148;28;20409;-66
2020/12/08 14:17:04;;;;;;;49.70;27.45;;;6.30;99.90;;;;;;6944444;28;20388;-65
2020/12/08 14:20:26;;;;;;;47.58;27.52;;;6.40;99.90;;;;;;6926990;28;20401;-66
2020/12/08 14:23:47;;;;;;;46.00;27.30;;;6.30;99.90;;;;;;6933618;28;20477;-67
2020/12/08 14:27:09;;;;;;;47.97;28.02;;;6.20;99.90;;;;;;6944486;28;20412;-67
2020/12/08 14:30:30;;;;;;;45.37;28.27;;;6.30;99.90;;;;;;6937858;28;20405;-67
2020/12/08 14:33:51;;;;;;;48.23;28.17;;;6.30;99.90;;;;;;6932784;28;20476;-66
2020/12/08 14:37:12;;;;;;;51.10;29.35;;;6.50;99.90;;;;;;6936040;28;20796;-66
2020/12/08 14:40:32;;;;;;;52.88;29.90;;;6.40;99.90;;;;;;6942816;28;20857;-66
2020/12/08 14:43:53;;;;;;;52.80;29.37;;;6.20;99.90;;;;;;6942387;28;20403;-68
2020/12/08 14:47:14;;;;;;;50.33;28.87;;;6.30;99.90;;;;;;6931275;28;20405;-68
2020/12/08 14:50:35;;;;;;;49.13;27.70;;;6.30;99.90;;;;;;6922994;28;20466;-68
2020/12/08 14:53:56;;;;;;;50.72;28.08;;;6.20;99.90;;;;;;6934526;28;20461;-68
2020/12/08 14:57:18;;;;;;;51.00;29.05;;;6.10;99.90;;;;;;6938471;28;20484;-67
2020/12/08 15:00:39;;;;;;;53.22;28.48;;;6.10;99.90;;;;;;6934256;28;20902;-67
2020/12/08 15:04:00;;;;;;;51.70;28.73;;;6.20;99.90;;;;;;6933582;28;20407;-69
2020/12/08 15:07:21;;;;;;;47.70;26.63;;;6.10;99.90;;;;;;6931009;28;20407;-67
2020/12/08 15:10:44;;;;;;;49.72;27.95;;;6.00;99.90;;;;;;6931645;28;20464;-67
2020/12/08 15:14:05;;;;;;;47.50;28.50;;;6.00;99.90;;;;;;6935256;28;20416;-67
2020/12/08 15:17:26;;;;;;;48.77;28.10;;;6.00;99.90;;;;;;6935156;28;20400;-67
2020/12/08 15:20:47;;;;;;;52.33;29.30;;;6.10;99.90;;;;;;6916868;28;20547;-67
2020/12/08 15:24:09;;;;;;;52.60;29.08;;;6.00;99.90;;;;;;6930038;28;20497;-68
2020/12/08 15:27:30;;;;;;;51.67;29.08;;;6.10;99.90;;;;;;6936071;28;20438;-67
2020/12/08 15:30:56;;;;;;;51.35;28.23;;;6.00;99.90;;;;;;6949793;28;20518;-67
2020/12/08 15:34:17;;;;;;;51.43;29.27;;;6.00;99.90;;;;;;6931206;28;20887;-67
2020/12/08 15:37:39;;;;;;;50.33;28.70;;;6.00;99.90;;;;;;6925161;28;20917;-67
2020/12/08 15:41:00;;;;;;;47.88;27.35;;;6.10;99.90;;;;;;6943094;28;20945;-67
2020/12/08 15:44:21;;;;;;;50.92;28.55;;;6.20;99.90;;;;;;6941301;28;20403;-67
2020/12/08 15:47:42;;;;;;;48.07;27.90;;;6.20;99.90;;;;;;6935028;28;20415;-67
2020/12/08 15:51:03;;;;;;;46.80;27.40;;;6.10;99.90;;;;;;6936279;28;20421;-67
2020/12/08 15:54:26;;;;;;;48.85;27.45;;;6.10;99.90;;;;;;6951906;28;20921;-67
2020/12/08 15:57:46;;;;;;;49.25;27.70;;;6.10;99.90;;;;;;6937056;28;20422;-67
2020/12/08 16:01:08;;;;;;;49.37;28.70;;;6.00;99.90;;;;;;6948180;28;20399;-67
2020/12/08 16:04:29;;;;;;;49.83;28.63;;;6.00;99.90;;;;;;6949277;28;20405;-67
2020/12/08 16:07:50;;;;;;;49.28;29.23;;;6.00;99.90;;;;;;6930694;28;20420;-67
2020/12/08 16:11:14;;;;;;;47.90;28.70;;;6.00;99.90;;;;;;6947641;28;20423;-67
2020/12/08 16:14:36;;;;;;;51.03;28.42;;;6.10;99.90;;;;;;6949093;28;20936;-67
2020/12/08 16:17:57;;;;;;;48.85;27.95;;;6.10;99.90;;;;;;6945560;28;20431;-68
2020/12/08 16:21:18;;;;;;;49.53;27.42;;;6.10;99.90;;;;;;6930920;28;20413;-68
2020/12/08 16:24:39;;;;;;;49.17;27.35;;;6.10;99.90;;;;;;6925758;28;20789;-69
2020/12/08 16:28:00;;;;;;;49.05;29.23;;;6.00;99.90;;;;;;6948395;28;20907;-68
2020/12/08 16:31:25;;;;;;;49.08;28.40;;;6.00;99.90;;;;;;6927920;28;20435;-68
2020/12/08 16:34:46;;;;;;;47.90;28.20;;;6.10;99.90;;;;;;6925790;28;20909;-68
2020/12/08 16:38:07;;;;;;;46.15;28.38;;;6.20;99.90;;;;;;6929911;28;20503;-68
2020/12/08 16:41:30;;;;;;;49.40;29.80;;;6.10;99.90;;;;;;6934130;28;20744;-68
2020/12/08 16:44:51;;;;;;;51.60;28.98;;;6.10;99.90;;;;;;6930571;28;20781;-67
2020/12/08 16:48:12;;;;;;;48.63;29.53;;;6.20;99.90;;;;;;6952459;28;20411;-67
2020/12/08 16:51:37;;;;;;;49.83;29.23;;;6.20;99.90;;;;;;6938790;28;21008;-69
2020/12/08 16:54:58;;;;;;;46.63;28.90;;;6.10;99.90;;;;;;6940663;28;20451;-67
2020/12/08 16:58:19;;;;;;;52.03;30.10;;;6.20;99.90;;;;;;6931730;28;20387;-67
2020/12/08 17:01:41;;;;;;;54.13;29.40;;;6.20;99.90;;;;;;6929207;28;20424;-68
2020/12/08 17:05:04;;;;;;;51.70;29.60;;;6.30;99.90;;;;;;6935516;28;20893;-67
2020/12/08 17:08:46;;;;;;;49.70;28.70;;;6.30;99.90;;;;;;6946531;28;20498;-68
2020/12/08 17:16:45;;;;;;;46.73;28.03;;;6.40;99.90;;;;;;6954075;28;20431;-69
2020/12/08 17:20:15;;;;;;;47.45;28.30;;;6.30;99.90;;;;;;6966453;28;20969;-66
2020/12/08 17:23:36;;;;;;;48.75;29.45;;;6.30;99.90;;;;;;6938597;28;20916;-67
2020/12/08 17:26:57;;;;;;;47.40;29.15;;;6.30;99.90;;;;;;6930658;28;20393;-67
2020/12/08 17:30:19;;;;;;;47.83;28.75;;;6.20;99.90;;;;;;6924351;28;20899;-67